Time;durP1;ratioP1;P1;durP2;ratioP2;P2;SDS_P1;SDS_P2;PMS_P1;PMS_P2;Temp;Humidity;BMP_temperature;BMP_pressure;BME280_temperature;BME280_humidity;BME280_pressure;Samples;Min_cycle;Max_cycle;Signal;HPM_P1;HPM_P2
2020/12/23 00:02:08;;;;;;;176.77;101.00;;;;;;;;;;5072979;28;20703;-54
2020/12/23 00:04:35;;;;;;;151.40;86.03;;;;;;;;;;5074424;28;20035;-55
2020/12/23 00:07:01;;;;;;;142.15;82.85;;;;;;;;;;5072912;28;20021;-55
2020/12/23 00:09:27;;;;;;;133.90;75.85;;;;;;;;;;5072583;28;20488;-55
2020/12/23 00:11:56;;;;;;;135.80;75.18;;;;;;;;;;5076574;28;20025;-55
2020/12/23 00:14:22;;;;;;;131.38;73.63;;;;;;;;;;5072527;28;20021;-56
2020/12/23 00:16:48;;;;;;;127.32;72.35;;;;;;;;;;5072888;28;20496;-55
2020/12/23 00:19:14;;;;;;;128.13;72.93;;;;;;;;;;5079265;28;20370;-56
2020/12/23 00:21:40;;;;;;;130.13;70.40;;;;;;;;;;5072613;28;20115;-55
2020/12/23 00:24:06;;;;;;;125.80;70.10;;;;;;;;;;5072128;28;20075;-54
2020/12/23 00:26:32;;;;;;;129.15;74.68;;;;;;;;;;5072875;28;20032;-55
2020/12/23 00:28:58;;;;;;;146.73;83.65;;;;;;;;;;5072637;28;20032;-55
2020/12/23 00:31:24;;;;;;;153.13;89.25;;;;;;;;;;5071494;28;20387;-54
2020/12/23 00:33:53;;;;;;;154.40;90.45;;;;;;;;;;5059997;28;20016;-56
2020/12/23 00:36:19;;;;;;;149.65;87.38;;;;;;;;;;5073739;28;20024;-55
2020/12/23 00:38:45;;;;;;;151.20;85.68;;;;;;;;;;5074330;28;20020;-55
2020/12/23 00:41:11;;;;;;;147.93;83.45;;;;;;;;;;5072462;28;20040;-55
2020/12/23 00:43:37;;;;;;;155.50;89.78;;;;;;;;;;5076273;28;20110;-54
2020/12/23 00:46:04;;;;;;;215.68;123.40;;;;;;;;;;5072844;28;20028;-55
2020/12/23 00:48:31;;;;;;;241.73;135.45;;;;;;;;;;5073850;28;20143;-55
2020/12/23 00:50:57;;;;;;;265.23;148.45;;;;;;;;;;5072454;28;20029;-54
2020/12/23 00:53:23;;;;;;;200.77;113.30;;;;;;;;;;5072118;28;20028;-55
2020/12/23 00:55:51;;;;;;;226.35;121.97;;;;;;;;;;5071945;28;20098;-55
2020/12/23 00:58:17;;;;;;;205.90;121.90;;;;;;;;;;5072179;28;20017;-55
2020/12/23 01:00:43;;;;;;;197.98;109.82;;;;;;;;;;5071788;28;20112;-55
2020/12/23 01:03:09;;;;;;;204.25;114.88;;;;;;;;;;5072031;28;20056;-55
2020/12/23 01:05:35;;;;;;;180.30;103.45;;;;;;;;;;5071767;28;20036;-56
2020/12/23 01:08:01;;;;;;;187.57;105.15;;;;;;;;;;5072212;28;20024;-55
2020/12/23 01:10:27;;;;;;;180.75;101.30;;;;;;;;;;5077759;28;20027;-54
2020/12/23 01:12:53;;;;;;;168.68;96.88;;;;;;;;;;5072619;28;20050;-56
2020/12/23 01:15:19;;;;;;;162.65;93.10;;;;;;;;;;5068366;28;20029;-54
2020/12/23 01:17:45;;;;;;;150.68;86.43;;;;;;;;;;5051502;28;20071;-58
2020/12/23 01:20:12;;;;;;;150.38;82.22;;;;;;;;;;5064244;28;20028;-56
2020/12/23 01:22:38;;;;;;;144.02;81.28;;;;;;;;;;5071593;28;20071;-56
2020/12/23 01:25:04;;;;;;;146.65;80.70;;;;;;;;;;5057190;28;20045;-54
2020/12/23 01:27:30;;;;;;;144.77;82.25;;;;;;;;;;5083161;28;20484;-56
2020/12/23 01:29:56;;;;;;;145.70;83.75;;;;;;;;;;5071683;28;20170;-56
2020/12/23 01:32:22;;;;;;;154.70;86.70;;;;;;;;;;5067377;28;20448;-56
2020/12/23 01:34:48;;;;;;;148.25;84.93;;;;;;;;;;5069116;28;20479;-56
2020/12/23 01:37:14;;;;;;;151.70;88.03;;;;;;;;;;5075140;28;20039;-56
2020/12/23 01:39:40;;;;;;;167.85;95.80;;;;;;;;;;5071801;28;20032;-56
2020/12/23 01:42:06;;;;;;;179.05;99.80;;;;;;;;;;5076293;28;20443;-56
2020/12/23 01:44:36;;;;;;;165.18;94.93;;;;;;;;;;5075763;28;20021;-56
2020/12/23 01:47:03;;;;;;;184.73;103.60;;;;;;;;;;5075633;28;20059;-57
2020/12/23 01:49:29;;;;;;;207.38;115.55;;;;;;;;;;5083880;28;20025;-56
2020/12/23 01:51:55;;;;;;;184.02;107.30;;;;;;;;;;5066345;28;20059;-56
2020/12/23 01:54:21;;;;;;;233.02;127.15;;;;;;;;;;5075283;28;20033;-56
2020/12/23 01:56:48;;;;;;;213.85;116.45;;;;;;;;;;5075562;28;20077;-53
2020/12/23 01:59:14;;;;;;;193.55;108.43;;;;;;;;;;5057547;28;20032;-56
2020/12/23 02:01:46;;;;;;;171.68;94.55;;;;;;;;;;5075405;28;20070;-56
2020/12/23 02:04:14;;;;;;;176.85;97.72;;;;;;;;;;5075097;28;20024;-56
2020/12/23 02:06:41;;;;;;;182.43;103.47;;;;;;;;;;5061447;28;20025;-55
2020/12/23 02:09:07;;;;;;;180.57;103.18;;;;;;;;;;5075719;28;20028;-55
2020/12/23 02:11:34;;;;;;;183.45;104.68;;;;;;;;;;5076658;28;20082;-54
2020/12/23 02:14:00;;;;;;;187.50;104.88;;;;;;;;;;5073262;28;20017;-55
2020/12/23 02:16:26;;;;;;;204.77;112.00;;;;;;;;;;5075011;28;20020;-55
2020/12/23 02:18:52;;;;;;;196.80;111.88;;;;;;;;;;5075156;28;20095;-55
2020/12/23 02:21:18;;;;;;;194.90;109.05;;;;;;;;;;5061608;28;20368;-54
2020/12/23 02:23:45;;;;;;;196.32;112.75;;;;;;;;;;5060908;28;20036;-55
2020/12/23 02:26:11;;;;;;;196.20;114.65;;;;;;;;;;5055455;28;20044;-55
2020/12/23 02:28:37;;;;;;;197.90;114.45;;;;;;;;;;5056919;28;20021;-54
2020/12/23 02:31:03;;;;;;;189.10;110.95;;;;;;;;;;5056548;28;20032;-54
2020/12/23 02:33:30;;;;;;;185.60;109.68;;;;;;;;;;5055037;28;20108;-54
2020/12/23 02:35:56;;;;;;;202.43;117.68;;;;;;;;;;5057492;28;20039;-55
2020/12/23 02:38:22;;;;;;;219.95;125.60;;;;;;;;;;5057913;28;20385;-54
2020/12/23 02:40:48;;;;;;;215.20;125.50;;;;;;;;;;5063079;28;20511;-54
2020/12/23 02:43:14;;;;;;;237.65;135.90;;;;;;;;;;5061745;28;20440;-54
2020/12/23 02:45:40;;;;;;;206.02;120.97;;;;;;;;;;5059806;28;20040;-54
2020/12/23 02:48:06;;;;;;;211.88;120.28;;;;;;;;;;5062425;28;20024;-55
2020/12/23 02:50:32;;;;;;;203.82;116.28;;;;;;;;;;5054684;28;20048;-55
2020/12/23 02:52:58;;;;;;;193.85;112.65;;;;;;;;;;5054356;28;20273;-55
2020/12/23 02:55:24;;;;;;;167.00;97.28;;;;;;;;;;5063604;28;20052;-54
2020/12/23 02:57:50;;;;;;;176.40;99.43;;;;;;;;;;5062576;28;20037;-55
2020/12/23 03:00:16;;;;;;;171.32;98.85;;;;;;;;;;5056636;28;20025;-54
2020/12/23 03:02:42;;;;;;;186.55;105.03;;;;;;;;;;5057501;28;20523;-54
2020/12/23 03:05:08;;;;;;;216.65;122.85;;;;;;;;;;5061052;28;20093;-56
2020/12/23 03:07:34;;;;;;;248.05;137.82;;;;;;;;;;5053276;28;20107;-56
2020/12/23 03:10:02;;;;;;;253.10;142.77;;;;;;;;;;5055699;28;20403;-53
2020/12/23 03:12:28;;;;;;;264.50;152.35;;;;;;;;;;5059038;28;20142;-54
2020/12/23 03:14:54;;;;;;;258.73;143.85;;;;;;;;;;5056314;28;20032;-55
2020/12/23 03:17:20;;;;;;;256.33;146.57;;;;;;;;;;5054141;28;20060;-55
2020/12/23 03:19:46;;;;;;;252.73;143.68;;;;;;;;;;5068090;28;20031;-56
2020/12/23 03:22:12;;;;;;;252.48;143.23;;;;;;;;;;5073938;28;20040;-56
2020/12/23 03:24:38;;;;;;;255.85;145.63;;;;;;;;;;5073944;28;20046;-56
2020/12/23 03:27:04;;;;;;;250.98;141.35;;;;;;;;;;5073607;28;20032;-54
2020/12/23 03:29:30;;;;;;;250.73;137.23;;;;;;;;;;5074115;28;20089;-56
2020/12/23 03:31:56;;;;;;;236.75;134.60;;;;;;;;;;5073631;28;20068;-56
2020/12/23 03:34:22;;;;;;;235.65;133.40;;;;;;;;;;5073923;28;20025;-56
2020/12/23 03:36:48;;;;;;;238.00;134.65;;;;;;;;;;5073944;28;20055;-56
2020/12/23 03:39:14;;;;;;;231.10;131.77;;;;;;;;;;5073731;28;20032;-55
2020/12/23 03:41:40;;;;;;;229.05;129.43;;;;;;;;;;5073319;28;20032;-56
2020/12/23 03:44:06;;;;;;;223.25;130.43;;;;;;;;;;5057710;28;20024;-56
2020/12/23 03:46:32;;;;;;;233.57;133.38;;;;;;;;;;5068023;28;20031;-57
2020/12/23 03:48:58;;;;;;;232.50;131.68;;;;;;;;;;5063758;28;20066;-56
2020/12/23 03:51:24;;;;;;;231.65;130.63;;;;;;;;;;5064586;28;20076;-56
2020/12/23 03:53:50;;;;;;;236.18;130.77;;;;;;;;;;5068285;28;20024;-56
2020/12/23 03:56:16;;;;;;;233.43;132.25;;;;;;;;;;5073113;28;20037;-56
2020/12/23 03:58:42;;;;;;;237.82;131.43;;;;;;;;;;5073415;28;20095;-56
2020/12/23 04:01:08;;;;;;;241.82;131.55;;;;;;;;;;5058550;28;20049;-55
2020/12/23 04:03:34;;;;;;;242.75;133.07;;;;;;;;;;5073023;28;20024;-56
2020/12/23 04:06:02;;;;;;;235.98;129.60;;;;;;;;;;5072847;28;20012;-56
2020/12/23 04:08:28;;;;;;;240.75;129.63;;;;;;;;;;5072815;28;20028;-57
2020/12/23 04:10:54;;;;;;;249.27;136.82;;;;;;;;;;5072540;28;20095;-55
2020/12/23 04:13:20;;;;;;;256.73;135.55;;;;;;;;;;5085818;28;20028;-56
2020/12/23 04:15:46;;;;;;;256.08;136.45;;;;;;;;;;5072826;28;20033;-56
2020/12/23 04:18:12;;;;;;;234.75;127.95;;;;;;;;;;5058423;28;20549;-56
2020/12/23 04:20:41;;;;;;;215.30;120.05;;;;;;;;;;5074064;28;20058;-56
2020/12/23 04:23:07;;;;;;;205.05;114.90;;;;;;;;;;5075107;28;20119;-54
2020/12/23 04:25:33;;;;;;;206.52;116.30;;;;;;;;;;5072561;28;20114;-54
2020/12/23 04:27:59;;;;;;;196.93;110.80;;;;;;;;;;5072382;28;20078;-55
2020/12/23 04:30:25;;;;;;;194.30;110.22;;;;;;;;;;5072606;28;20032;-55
2020/12/23 04:32:51;;;;;;;179.25;102.90;;;;;;;;;;5072429;28;20024;-55
2020/12/23 04:35:17;;;;;;;160.80;93.68;;;;;;;;;;5071713;28;20020;-55
2020/12/23 04:37:43;;;;;;;167.20;92.82;;;;;;;;;;5075917;28;20086;-54
2020/12/23 04:40:09;;;;;;;162.85;93.57;;;;;;;;;;5075314;28;20056;-55
2020/12/23 04:42:35;;;;;;;158.52;92.32;;;;;;;;;;5075799;28;20040;-56
2020/12/23 04:45:02;;;;;;;164.55;94.13;;;;;;;;;;5071572;28;20020;-54
2020/12/23 04:47:30;;;;;;;159.20;94.15;;;;;;;;;;5072045;28;20081;-56
2020/12/23 04:49:56;;;;;;;155.48;91.53;;;;;;;;;;5072032;28;20472;-55
2020/12/23 04:52:36;;;;;;;144.13;83.82;;;;;;;;;;5058246;28;20052;-55
2020/12/23 04:55:03;;;;;;;145.02;81.40;;;;;;;;;;5071870;28;20029;-55
2020/12/23 04:57:29;;;;;;;147.48;84.32;;;;;;;;;;5072171;28;20024;-55
2020/12/23 04:59:56;;;;;;;141.27;83.90;;;;;;;;;;5072283;28;20479;-55
2020/12/23 05:02:23;;;;;;;143.88;84.20;;;;;;;;;;5072050;28;20032;-55
2020/12/23 05:04:49;;;;;;;145.20;82.88;;;;;;;;;;5072190;28;20024;-56
2020/12/23 05:07:19;;;;;;;142.27;82.53;;;;;;;;;;5072089;28;20028;-55
2020/12/23 05:09:47;;;;;;;144.38;82.45;;;;;;;;;;5072082;28;20050;-55
2020/12/23 05:12:13;;;;;;;139.20;78.50;;;;;;;;;;5071641;28;20040;-56
2020/12/23 05:14:39;;;;;;;151.88;88.60;;;;;;;;;;5071873;28;20043;-54
2020/12/23 05:17:05;;;;;;;180.68;106.38;;;;;;;;;;5070972;28;20021;-55
2020/12/23 05:19:31;;;;;;;173.38;104.47;;;;;;;;;;5065509;28;20036;-54
2020/12/23 05:21:58;;;;;;;158.48;92.70;;;;;;;;;;5052382;28;20036;-53
2020/12/23 05:24:24;;;;;;;145.57;85.82;;;;;;;;;;5051745;28;20059;-55
2020/12/23 05:26:51;;;;;;;153.60;85.60;;;;;;;;;;5060792;28;20485;-54
2020/12/23 05:29:17;;;;;;;147.48;83.43;;;;;;;;;;5068957;28;20028;-55
2020/12/23 05:31:43;;;;;;;136.27;79.63;;;;;;;;;;5071887;28;20017;-55
2020/12/23 05:34:09;;;;;;;148.63;83.15;;;;;;;;;;5071986;28;20384;-55
2020/12/23 05:36:36;;;;;;;154.07;83.68;;;;;;;;;;5071917;28;20050;-55
2020/12/23 05:39:04;;;;;;;152.55;88.78;;;;;;;;;;5071806;28;20027;-55
2020/12/23 05:41:31;;;;;;;152.35;83.32;;;;;;;;;;5071432;28;20668;-54
2020/12/23 05:43:57;;;;;;;236.63;113.85;;;;;;;;;;5071499;28;20028;-55
2020/12/23 05:46:23;;;;;;;234.82;114.25;;;;;;;;;;5071318;28;20051;-55
2020/12/23 05:48:49;;;;;;;174.68;95.47;;;;;;;;;;5071987;28;20345;-55
2020/12/23 05:51:15;;;;;;;164.05;92.22;;;;;;;;;;5061958;28;20488;-56
2020/12/23 05:53:41;;;;;;;169.60;93.32;;;;;;;;;;5067636;28;20024;-55
2020/12/23 05:56:08;;;;;;;169.35;94.75;;;;;;;;;;5071838;28;20035;-55
2020/12/23 05:58:35;;;;;;;213.68;116.32;;;;;;;;;;5071999;28;20032;-55
2020/12/23 06:01:02;;;;;;;221.27;118.32;;;;;;;;;;5071843;28;20035;-55
2020/12/23 06:03:43;;;;;;;228.27;117.07;;;;;;;;;;5071812;28;20017;-54
2020/12/23 06:06:11;;;;;;;204.57;107.07;;;;;;;;;;5070947;28;20025;-54
2020/12/23 06:08:38;;;;;;;243.55;121.35;;;;;;;;;;5071736;28;20040;-55
2020/12/23 06:11:04;;;;;;;239.50;123.28;;;;;;;;;;5071623;28;20376;-55
2020/12/23 06:13:40;;;;;;;217.82;112.45;;;;;;;;;;5071654;28;20024;-55
2020/12/23 06:16:09;;;;;;;197.23;104.85;;;;;;;;;;5067520;28;20024;-55
2020/12/23 06:18:37;;;;;;;203.63;108.50;;;;;;;;;;5071636;28;20430;-55
2020/12/23 06:21:08;;;;;;;207.50;115.00;;;;;;;;;;5071365;28;20031;-55
2020/12/23 06:23:34;;;;;;;204.70;116.20;;;;;;;;;;5058314;28;20121;-55
2020/12/23 06:26:01;;;;;;;194.70;112.53;;;;;;;;;;5068231;28;20033;-55
2020/12/23 06:28:28;;;;;;;203.18;114.55;;;;;;;;;;5074078;28;20078;-55
2020/12/23 06:30:55;;;;;;;259.63;148.50;;;;;;;;;;5075105;28;20411;-52
2020/12/23 06:33:22;;;;;;;329.83;190.02;;;;;;;;;;5075028;28;20021;-53
2020/12/23 06:35:48;;;;;;;256.00;141.95;;;;;;;;;;5075114;28;20052;-52
2020/12/23 06:38:23;;;;;;;288.10;160.75;;;;;;;;;;5074926;28;20020;-52
2020/12/23 06:40:59;;;;;;;239.10;135.65;;;;;;;;;;5075089;28;20028;-53
2020/12/23 06:43:43;;;;;;;354.85;189.35;;;;;;;;;;5074804;28;20071;-55
2020/12/23 06:46:09;;;;;;;467.35;254.35;;;;;;;;;;5079102;28;20036;-55
2020/12/23 06:48:35;;;;;;;310.00;173.38;;;;;;;;;;5060578;28;20020;-56
2020/12/23 06:51:02;;;;;;;256.70;142.48;;;;;;;;;;5066714;28;20017;-56
2020/12/23 06:53:37;;;;;;;225.02;124.65;;;;;;;;;;5057539;28;20084;-56
2020/12/23 06:56:03;;;;;;;211.70;124.20;;;;;;;;;;5072640;28;20027;-56
2020/12/23 06:58:42;;;;;;;239.98;135.68;;;;;;;;;;5074600;28;20029;-56
2020/12/23 07:01:20;;;;;;;217.40;123.25;;;;;;;;;;5061819;28;20028;-54
2020/12/23 07:03:47;;;;;;;186.68;107.25;;;;;;;;;;5074637;28;20043;-55
2020/12/23 07:06:32;;;;;;;175.93;105.63;;;;;;;;;;5074520;28;20469;-56
2020/12/23 07:09:00;;;;;;;190.07;109.93;;;;;;;;;;5074172;28;20028;-56
2020/12/23 07:11:28;;;;;;;192.88;112.07;;;;;;;;;;5074489;28;20064;-55
2020/12/23 07:13:58;;;;;;;197.35;116.93;;;;;;;;;;5074087;28;20016;-55
2020/12/23 07:16:25;;;;;;;204.30;121.15;;;;;;;;;;5074358;28;20541;-55
2020/12/23 07:18:51;;;;;;;241.70;141.85;;;;;;;;;;5074094;28;20381;-55
2020/12/23 07:21:21;;;;;;;225.50;133.55;;;;;;;;;;5073866;28;20481;-56
2020/12/23 07:23:48;;;;;;;224.85;135.80;;;;;;;;;;5057058;28;20091;-55
2020/12/23 07:26:15;;;;;;;217.10;132.75;;;;;;;;;;5073833;28;20033;-55
2020/12/23 07:28:42;;;;;;;232.60;137.68;;;;;;;;;;5073899;28;20378;-55
2020/12/23 07:31:09;;;;;;;250.40;146.07;;;;;;;;;;5073728;28;20025;-55
2020/12/23 07:33:39;;;;;;;268.80;154.75;;;;;;;;;;5073639;28;20020;-55
2020/12/23 07:36:06;;;;;;;270.33;152.50;;;;;;;;;;5073742;28;20016;-55
2020/12/23 07:38:33;;;;;;;270.10;154.85;;;;;;;;;;5073440;28;20392;-56
2020/12/23 07:40:59;;;;;;;319.73;193.15;;;;;;;;;;5073536;28;20041;-55
2020/12/23 07:43:26;;;;;;;291.25;173.77;;;;;;;;;;5071679;28;20039;-55
2020/12/23 07:45:53;;;;;;;289.75;172.07;;;;;;;;;;5073882;28;20078;-55
2020/12/23 07:48:19;;;;;;;267.20;156.55;;;;;;;;;;5055088;28;20429;-55
2020/12/23 07:50:49;;;;;;;270.92;158.88;;;;;;;;;;5073430;28;20058;-56
2020/12/23 07:53:22;;;;;;;279.63;164.70;;;;;;;;;;5069600;28;20120;-56
2020/12/23 07:55:50;;;;;;;283.92;171.35;;;;;;;;;;5069669;28;20033;-55
2020/12/23 07:58:16;;;;;;;300.98;179.10;;;;;;;;;;5073286;28;20090;-56
2020/12/23 08:00:46;;;;;;;297.65;173.38;;;;;;;;;;5072973;28;20094;-56
2020/12/23 08:03:12;;;;;;;277.17;158.23;;;;;;;;;;5073002;28;20033;-55
2020/12/23 08:05:42;;;;;;;253.80;150.98;;;;;;;;;;5073071;28;20162;-55
2020/12/23 08:08:08;;;;;;;242.23;146.80;;;;;;;;;;5072796;28;20048;-55
2020/12/23 08:10:35;;;;;;;243.98;143.60;;;;;;;;;;5072777;28;20378;-56
2020/12/23 08:13:02;;;;;;;283.52;168.32;;;;;;;;;;5072637;28;20024;-55
2020/12/23 08:15:29;;;;;;;295.70;182.05;;;;;;;;;;5072761;28;20035;-56
2020/12/23 08:17:59;;;;;;;304.52;192.80;;;;;;;;;;5072806;28;20111;-55
2020/12/23 08:20:25;;;;;;;265.73;157.27;;;;;;;;;;5058859;28;20028;-56
2020/12/23 08:22:51;;;;;;;272.25;166.75;;;;;;;;;;5072153;28;20028;-55
2020/12/23 08:25:17;;;;;;;276.95;171.00;;;;;;;;;;5064531;28;20127;-56
2020/12/23 08:27:45;;;;;;;294.83;179.90;;;;;;;;;;5072800;28;20561;-56
2020/12/23 08:30:12;;;;;;;292.60;180.45;;;;;;;;;;5054780;28;20392;-56
2020/12/23 08:32:53;;;;;;;298.88;188.85;;;;;;;;;;5072760;28;20025;-56
2020/12/23 08:35:19;;;;;;;254.77;156.30;;;;;;;;;;5072497;28;20096;-56
2020/12/23 08:37:45;;;;;;;269.02;162.25;;;;;;;;;;5072671;28;20028;-56
2020/12/23 08:40:14;;;;;;;260.02;156.35;;;;;;;;;;5072362;28;20035;-56
2020/12/23 08:42:50;;;;;;;260.63;157.98;;;;;;;;;;5072561;28;20033;-56
2020/12/23 08:45:20;;;;;;;276.48;169.73;;;;;;;;;;5072351;28;20023;-56
2020/12/23 08:47:47;;;;;;;345.92;221.20;;;;;;;;;;5071979;28;20021;-56
2020/12/23 08:50:13;;;;;;;328.65;206.60;;;;;;;;;;5071956;28;20021;-56
2020/12/23 08:52:45;;;;;;;283.92;178.88;;;;;;;;;;5071508;28;20024;-56
2020/12/23 08:55:16;;;;;;;286.75;184.38;;;;;;;;;;5072360;28;20032;-57
2020/12/23 08:57:43;;;;;;;264.70;161.80;;;;;;;;;;5072040;28;20514;-56
2020/12/23 09:00:15;;;;;;;222.05;137.32;;;;;;;;;;5072479;28;20033;-57
2020/12/23 09:02:43;;;;;;;219.13;138.23;;;;;;;;;;5072000;28;20357;-57
2020/12/23 09:05:27;;;;;;;267.77;170.27;;;;;;;;;;5071973;28;20392;-57
2020/12/23 09:08:09;;;;;;;249.35;153.23;;;;;;;;;;5072137;28;20037;-55
2020/12/23 09:10:35;;;;;;;;;;;;;;;;;;5060384;28;20014;-56
2020/12/23 09:13:14;;;;;;;245.13;152.13;;;;;;;;;;5070504;28;19911;-56
2020/12/23 09:15:40;;;;;;;251.43;157.82;;;;;;;;;;5072055;28;20104;-56
2020/12/23 09:18:09;;;;;;;235.45;149.85;;;;;;;;;;5072125;28;20031;-56
2020/12/23 09:20:37;;;;;;;250.25;153.70;;;;;;;;;;5053902;28;20031;-56
2020/12/23 09:23:04;;;;;;;221.52;141.02;;;;;;;;;;5072077;28;20415;-56
2020/12/23 09:25:34;;;;;;;213.23;138.85;;;;;;;;;;5071876;28;20502;-56
2020/12/23 09:28:07;;;;;;;215.73;139.77;;;;;;;;;;5072135;28;20107;-56
2020/12/23 09:30:59;;;;;;;217.27;139.02;;;;;;;;;;5072230;28;20025;-57
2020/12/23 09:33:25;;;;;;;;;;;;;;;;;;5067972;28;20048;-56
2020/12/23 09:36:04;;;;;;;238.63;152.25;;;;;;;;;;5071967;28;20330;-57
2020/12/23 09:38:34;;;;;;;230.35;145.55;;;;;;;;;;5071732;28;20112;-58
2020/12/23 09:41:01;;;;;;;212.73;136.70;;;;;;;;;;5071741;28;20506;-57
2020/12/23 09:43:28;;;;;;;236.73;155.07;;;;;;;;;;5071759;28;20067;-57
2020/12/23 09:45:55;;;;;;;234.50;154.75;;;;;;;;;;5071999;28;20012;-55
2020/12/23 09:48:22;;;;;;;238.70;160.75;;;;;;;;;;5071655;28;20024;-57
2020/12/23 09:50:48;;;;;;;243.88;164.55;;;;;;;;;;5071777;28;20028;-57
2020/12/23 09:53:15;;;;;;;199.93;137.25;;;;;;;;;;5071665;28;20111;-55
2020/12/23 09:55:41;;;;;;;201.05;138.20;;;;;;;;;;5071513;28;20384;-57
2020/12/23 09:58:08;;;;;;;211.05;146.45;;;;;;;;;;5071862;28;20029;-57
2020/12/23 10:00:34;;;;;;;222.30;155.88;;;;;;;;;;5071626;28;20075;-57
2020/12/23 10:03:00;;;;;;;207.40;146.50;;;;;;;;;;5073611;28;20021;-57
2020/12/23 10:05:26;;;;;;;205.73;147.48;;;;;;;;;;5075279;28;20046;-57
2020/12/23 10:07:52;;;;;;;216.52;154.98;;;;;;;;;;5075158;28;20024;-57
2020/12/23 10:10:19;;;;;;;206.48;150.85;;;;;;;;;;5075128;28;20021;-57
2020/12/23 10:12:45;;;;;;;216.40;159.68;;;;;;;;;;5075424;28;20495;-57
2020/12/23 10:15:11;;;;;;;222.55;164.55;;;;;;;;;;5075258;28;20099;-58
2020/12/23 10:17:37;;;;;;;226.65;173.15;;;;;;;;;;5075084;28;20055;-57
2020/12/23 10:20:04;;;;;;;234.80;180.68;;;;;;;;;;5075028;28;20027;-57
2020/12/23 10:22:30;;;;;;;237.70;182.50;;;;;;;;;;5075057;28;20036;-58
2020/12/23 10:24:56;;;;;;;239.00;182.32;;;;;;;;;;5074660;28;20041;-57
2020/12/23 10:27:22;;;;;;;241.80;185.15;;;;;;;;;;5075241;28;20379;-58
2020/12/23 10:29:48;;;;;;;242.63;182.88;;;;;;;;;;5074698;28;20492;-57
2020/12/23 10:32:15;;;;;;;229.85;169.90;;;;;;;;;;5074993;28;20032;-57
2020/12/23 10:34:41;;;;;;;224.00;170.57;;;;;;;;;;5074707;28;20021;-57
2020/12/23 10:37:07;;;;;;;241.40;187.07;;;;;;;;;;5074881;28;20024;-57
2020/12/23 10:39:33;;;;;;;217.63;162.10;;;;;;;;;;5074779;28;20025;-57
2020/12/23 10:41:59;;;;;;;218.75;158.20;;;;;;;;;;5074673;28;20039;-57
2020/12/23 10:44:25;;;;;;;207.35;158.57;;;;;;;;;;5074596;28;20078;-56
2020/12/23 10:46:58;;;;;;;215.63;160.20;;;;;;;;;;5074520;28;20089;-56
2020/12/23 10:49:24;;;;;;;208.43;149.30;;;;;;;;;;5074135;28;20016;-57
2020/12/23 10:51:56;;;;;;;204.18;149.38;;;;;;;;;;5074121;28;20073;-57
2020/12/23 10:54:22;;;;;;;235.18;175.20;;;;;;;;;;5074177;28;20039;-57
2020/12/23 10:56:48;;;;;;;212.15;157.60;;;;;;;;;;5074459;28;20056;-57
2020/12/23 10:59:15;;;;;;;192.82;145.65;;;;;;;;;;5056717;28;20033;-57
2020/12/23 11:01:41;;;;;;;176.48;131.48;;;;;;;;;;5053695;28;20702;-57
2020/12/23 11:04:07;;;;;;;182.20;139.85;;;;;;;;;;5053630;28;20120;-57
2020/12/23 11:06:33;;;;;;;188.02;138.65;;;;;;;;;;5055566;28;20029;-57
2020/12/23 11:08:59;;;;;;;162.18;123.50;;;;;;;;;;5055451;28;20033;-57
2020/12/23 11:11:26;;;;;;;150.60;113.80;;;;;;;;;;5056967;28;20017;-57
2020/12/23 11:13:52;;;;;;;137.73;101.55;;;;;;;;;;5053359;28;20049;-57
2020/12/23 11:16:18;;;;;;;124.22;93.20;;;;;;;;;;5055063;28;20107;-57
2020/12/23 11:18:45;;;;;;;124.35;90.45;;;;;;;;;;5052636;28;20732;-57
2020/12/23 11:21:15;;;;;;;122.50;93.38;;;;;;;;;;5054703;28;20378;-58
2020/12/23 11:23:42;;;;;;;104.53;80.65;;;;;;;;;;5072473;28;20107;-57
2020/12/23 11:26:18;;;;;;;131.27;99.10;;;;;;;;;;5072740;28;20035;-57
2020/12/23 11:28:44;;;;;;;94.75;70.28;;;;;;;;;;5073845;28;20499;-58
2020/12/23 11:31:10;;;;;;;97.13;69.55;;;;;;;;;;5073828;28;20028;-57
2020/12/23 11:33:36;;;;;;;96.47;68.13;;;;;;;;;;5072063;28;20020;-58
2020/12/23 11:36:03;;;;;;;79.03;58.55;;;;;;;;;;5072911;28;20092;-58
2020/12/23 11:38:29;;;;;;;81.47;60.85;;;;;;;;;;5070410;28;20028;-57
2020/12/23 11:40:55;;;;;;;81.22;59.13;;;;;;;;;;5066664;28;20451;-57
2020/12/23 11:43:21;;;;;;;121.75;90.13;;;;;;;;;;5065812;28;20035;-57
2020/12/23 11:45:47;;;;;;;80.65;56.70;;;;;;;;;;5059162;28;20055;-58
2020/12/23 11:48:13;;;;;;;94.55;69.60;;;;;;;;;;5073684;28;20028;-58
2020/12/23 11:50:39;;;;;;;114.72;84.00;;;;;;;;;;5073138;28;20029;-58
2020/12/23 11:53:05;;;;;;;100.13;71.78;;;;;;;;;;5073176;28;20380;-57
2020/12/23 11:55:31;;;;;;;165.63;122.90;;;;;;;;;;5072873;28;20017;-58
2020/12/23 11:57:58;;;;;;;106.15;79.57;;;;;;;;;;5055034;28;20437;-57
2020/12/23 12:00:24;;;;;;;88.72;62.53;;;;;;;;;;5052969;28;20381;-58
2020/12/23 12:02:50;;;;;;;172.35;125.97;;;;;;;;;;5057799;28;20044;-58
2020/12/23 12:05:16;;;;;;;113.25;79.88;;;;;;;;;;5054315;28;20017;-57
2020/12/23 12:07:42;;;;;;;123.32;87.65;;;;;;;;;;5055355;28;20146;-57
2020/12/23 12:10:09;;;;;;;115.70;85.25;;;;;;;;;;5053456;28;20025;-57
2020/12/23 12:12:35;;;;;;;106.75;79.60;;;;;;;;;;5053946;28;20086;-57
2020/12/23 12:15:03;;;;;;;97.15;69.63;;;;;;;;;;5052479;28;20045;-57
2020/12/23 12:17:29;;;;;;;87.43;64.00;;;;;;;;;;5055125;28;20020;-57
2020/12/23 12:19:55;;;;;;;84.45;60.20;;;;;;;;;;5057398;28;20028;-57
2020/12/23 12:22:21;;;;;;;82.43;62.03;;;;;;;;;;5054671;28;20068;-58
2020/12/23 12:24:47;;;;;;;74.65;55.30;;;;;;;;;;5056332;28;20045;-56
2020/12/23 12:27:13;;;;;;;74.25;55.53;;;;;;;;;;5065305;28;20516;-58
2020/12/23 12:29:40;;;;;;;113.15;83.78;;;;;;;;;;5053497;28;20029;-57
2020/12/23 12:32:06;;;;;;;116.10;81.65;;;;;;;;;;5052677;28;20075;-58
2020/12/23 12:34:32;;;;;;;94.20;67.30;;;;;;;;;;5065056;28;20028;-58
2020/12/23 12:36:58;;;;;;;79.28;57.58;;;;;;;;;;5072450;28;20032;-58
2020/12/23 12:39:24;;;;;;;102.93;75.65;;;;;;;;;;5072283;28;20020;-58
2020/12/23 12:41:50;;;;;;;109.40;77.60;;;;;;;;;;5072390;28;20037;-58
2020/12/23 12:44:17;;;;;;;153.60;104.75;;;;;;;;;;5070878;28;20028;-57
2020/12/23 12:46:43;;;;;;;104.55;72.93;;;;;;;;;;5052481;28;20025;-57
2020/12/23 12:49:09;;;;;;;94.45;67.70;;;;;;;;;;5054709;28;20025;-57
2020/12/23 12:51:35;;;;;;;91.95;65.55;;;;;;;;;;5054080;28;20079;-57
2020/12/23 12:54:01;;;;;;;81.95;59.28;;;;;;;;;;5052769;28;20031;-58
2020/12/23 12:56:31;;;;;;;66.13;48.00;;;;;;;;;;5052968;28;20037;-57
2020/12/23 12:58:58;;;;;;;71.82;47.88;;;;;;;;;;5054828;28;20017;-57
2020/12/23 13:01:32;;;;;;;72.03;48.90;;;;;;;;;;5052407;28;20032;-57
2020/12/23 13:03:58;;;;;;;63.88;46.38;;;;;;;;;;5053486;28;20032;-57
2020/12/23 13:06:24;;;;;;;69.50;51.55;;;;;;;;;;5060604;28;20033;-57
2020/12/23 13:08:51;;;;;;;104.18;67.65;;;;;;;;;;5058746;28;20027;-57
2020/12/23 13:11:26;;;;;;;99.28;64.80;;;;;;;;;;5055791;28;20398;-57
2020/12/23 13:13:53;;;;;;;113.85;75.70;;;;;;;;;;5062978;28;20477;-58
2020/12/23 13:16:19;;;;;;;101.32;73.20;;;;;;;;;;5065586;28;20033;-57
2020/12/23 13:18:45;;;;;;;87.53;65.43;;;;;;;;;;5056999;28;20021;-57
2020/12/23 13:21:12;;;;;;;98.13;70.70;;;;;;;;;;5069819;28;20158;-57
2020/12/23 13:23:38;;;;;;;110.65;77.80;;;;;;;;;;5069243;28;20039;-57
2020/12/23 13:26:04;;;;;;;117.43;83.20;;;;;;;;;;5057623;28;20447;-57
2020/12/23 13:28:30;;;;;;;106.05;75.72;;;;;;;;;;5070701;28;20468;-57
2020/12/23 13:30:59;;;;;;;128.68;91.78;;;;;;;;;;5054930;28;20022;-56
2020/12/23 13:33:26;;;;;;;117.13;83.70;;;;;;;;;;5058468;28;20017;-57
2020/12/23 13:35:52;;;;;;;111.35;78.30;;;;;;;;;;5055815;28;20029;-57
2020/12/23 13:38:19;;;;;;;157.30;106.18;;;;;;;;;;5062658;28;20484;-56
2020/12/23 13:40:45;;;;;;;124.00;86.90;;;;;;;;;;5055807;28;20025;-57
2020/12/23 13:43:12;;;;;;;114.70;82.43;;;;;;;;;;5065076;28;20037;-56
2020/12/23 13:45:38;;;;;;;111.25;78.05;;;;;;;;;;5057615;28;20018;-57
2020/12/23 13:48:04;;;;;;;172.75;130.45;;;;;;;;;;5056255;28;20017;-56
2020/12/23 13:50:36;;;;;;;135.77;99.68;;;;;;;;;;5055364;28;20025;-57
2020/12/23 13:53:02;;;;;;;118.97;82.88;;;;;;;;;;5055037;28;20025;-58
2020/12/23 13:55:28;;;;;;;115.75;82.55;;;;;;;;;;5055271;28;20090;-56
2020/12/23 13:57:54;;;;;;;110.07;76.68;;;;;;;;;;5055384;28;20096;-57
2020/12/23 14:00:20;;;;;;;120.95;85.20;;;;;;;;;;5054322;28;20029;-57